Aeroporto :
LOGIN :

Iscrizione | Disclaimer

   EN    FR    IT 

 










Sommario :    VFR   VFR Marginale   IFR   IFR Intensivo   IFR Molto Intensivo
Visibilità : 
Base nubi : 
>= 8 km
>= 3000ft
5 / 8 km
1000 / 3000 ft
1500m / 5 km
500 / 1000 ft
800 / 1500m
200 / 500 ft
< 800m
< 200 ft
Simboli :   Temporali  Nebbia  Neve Forte  Precipitazioni Forti  Vento > 20 kt
SIGMETs :   Varie  Temporali  Ghiacco  Turbolenza  Onda orograficha  Ceneri Vulcaniche






- Altitudine del aeroporto : 574 ft
- Codice IATA : TEQ


LTBU - Corlu

ULTIMO METAR :
  • 041620Z 05009KT 8000 NSC 10/09 Q1016

METARs OBSOLETI :
  • 041550Z 05008KT 8000 NSC 10/09 Q1016 RMK RWY22 05010KT
  • 041520Z 04009KT 8000 NSC 11/09 Q1016
  • 041450Z 07006KT 8000 NSC 12/09 Q1016
  • 041420Z 10006KT 8000 NSC 13/09 Q1015
  • 041350Z 09006KT 8000 NSC 15/09 Q1015 RMK RWY22 09006KT 050V120

TAF TAF LTBU
Valido dal 04 a 12 ore il 05 a 12 ore UTC


041040Z 0412/0512 04008KT 8000 SCT012
BECMG 0416/0419 4000 BR BKN010
PROB30
TEMPO 0421/0501 2000 BCFG
TEMPO 0501/0505 0800 FG BKN003
BECMG 0506/0509 8000 SCT015



MetMap, La meteo Aeronautica in un colpo d'occhio ! - Copyright ORBIFLY Dicembre 2007 - Disclaimer

ORBIFLY MET'MAP TEAM :

Programmazione e sviluppo : Alexandra Zaïnal
Concezione : Baudouin d'Aumeries
Aiuto per la programmazione : Marc-Olivier Méhu
Supporto tecnico e logistico : Manuel Goepfert
Aiuto per la traduzione : Arnaldo La Scala

Contatto : metmap@orbifly.com




FONTI E CREDITI :

   NOAA